Time;durP1;ratioP1;P1;durP2;ratioP2;P2;SDS_P1;SDS_P2;PMS_P1;PMS_P2;Temp;Humidity;BMP_temperature;BMP_pressure;BME280_temperature;BME280_humidity;BME280_pressure;Samples;Min_cycle;Max_cycle;Signal;HPM_P1;HPM_P2
2024/01/26 00:00:10;;;;;;;18.60;9.30;;;;;;;2.59;93.17;98352.10;78643;1312;3013166;-64
2024/01/26 00:02:41;;;;;;;22.70;12.30;;;;;;;2.89;93.77;98345.87;77442;1311;3052317;-65
2024/01/26 00:05:09;;;;;;;21.40;11.60;;;;;;;3.29;92.08;98342.73;78770;1311;3012890;-61
2024/01/26 00:07:35;;;;;;;18.40;11.20;;;;;;;3.28;91.29;98344.16;78528;1306;3013236;-65
2024/01/26 00:10:04;;;;;;;24.70;12.80;;;;;;;3.12;91.42;98345.45;77585;1308;3050411;-64
2024/01/26 00:12:31;;;;;;;19.50;12.60;;;;;;;2.77;92.44;98346.23;78680;1312;3014251;-65
2024/01/26 00:14:58;;;;;;;23.60;11.00;;;;;;;2.46;93.85;98351.30;78528;1311;3012851;-63
2024/01/26 00:17:27;;;;;;;22.70;13.50;;;;;;;2.37;94.71;98349.11;77256;1312;3051589;-64
2024/01/26 00:19:54;;;;;;;22.80;10.80;;;;;;;2.13;96.01;98351.71;78430;1309;3013150;-65
2024/01/26 00:22:21;;;;;;;20.50;11.50;;;;;;;2.66;96.07;98351.78;78654;1311;3013112;-65
2024/01/26 00:24:49;;;;;;;26.00;13.30;;;;;;;3.23;93.43;98345.98;77300;1312;3028494;-65
2024/01/26 00:27:16;;;;;;;23.00;12.40;;;;;;;3.15;91.95;98349.45;78537;1313;3019227;-66
2024/01/26 00:29:42;;;;;;;18.40;11.80;;;;;;;2.85;92.28;98357.11;78452;1311;3011741;-64
2024/01/26 00:32:10;;;;;;;18.10;10.70;;;;;;;2.55;93.62;98354.70;77365;1310;3027916;-65
2024/01/26 00:34:37;;;;;;;22.40;11.30;;;;;;;2.39;94.77;98360.09;78554;1309;3013986;-61
2024/01/26 00:37:04;;;;;;;23.00;12.30;;;;;;;2.18;95.81;98361.50;78758;1312;3012977;-64
2024/01/26 00:39:32;;;;;;;18.30;9.90;;;;;;;2.18;96.62;98362.91;77660;1310;3028104;-63
2024/01/26 00:41:59;;;;;;;19.60;9.70;;;;;;;2.50;95.87;98361.48;78664;1312;3013160;-67
2024/01/26 00:44:25;;;;;;;20.80;10.00;;;;;;;2.97;94.15;98364.84;78554;1311;3011688;-63
2024/01/26 00:46:53;;;;;;;17.40;10.20;;;;;;;3.06;92.78;98361.32;77535;1308;3025400;-62
2024/01/26 00:49:20;;;;;;;18.70;11.20;;;;;;;3.01;92.69;98363.95;78490;1308;3019089;-66
2024/01/26 00:51:47;;;;;;;16.90;10.70;;;;;;;2.69;93.23;98360.94;78652;1309;3011777;-63
2024/01/26 00:54:15;;;;;;;23.00;12.20;;;;;;;2.49;94.47;98360.99;77438;1311;3027404;-67
2024/01/26 00:56:44;;;;;;;22.70;12.20;;;;;;;2.28;95.42;98363.15;78660;1312;3014243;-65
2024/01/26 00:59:11;;;;;;;17.00;8.50;;;;;;;2.12;96.60;98358.52;78555;1306;3011536;-61
2024/01/26 01:01:39;;;;;;;17.60;10.60;;;;;;;2.55;96.37;98356.23;77359;1311;3052101;-65
2024/01/26 01:04:05;;;;;;;15.00;9.30;;;;;;;2.97;94.07;98360.36;78511;1307;3018544;-63
2024/01/26 01:06:32;;;;;;;23.70;12.30;;;;;;;2.77;93.67;98355.08;78650;1310;3013105;-63
2024/01/26 01:09:00;;;;;;;17.30;10.00;;;;;;;2.60;94.26;98356.52;77632;1311;3026057;-65
2024/01/26 01:11:27;;;;;;;18.60;10.60;;;;;;;2.56;94.74;98358.63;79233;1312;3013635;-63
2024/01/26 01:13:54;;;;;;;19.90;10.70;;;;;;;2.38;95.33;98357.01;79210;1311;3011714;-61
2024/01/26 01:16:22;;;;;;;25.40;10.50;;;;;;;2.04;96.87;98358.64;77663;1311;3050190;-62
2024/01/26 01:18:49;;;;;;;15.80;8.20;;;;;;;1.94;97.95;98357.90;78898;1306;3012938;-69
2024/01/26 01:21:16;;;;;;;17.50;9.60;;;;;;;2.16;98.05;98361.45;78994;1308;3011937;-70
2024/01/26 01:23:44;;;;;;;16.30;10.20;;;;;;;2.60;96.32;98359.96;77719;1306;3026130;-64
2024/01/26 01:26:10;;;;;;;15.60;9.10;;;;;;;2.54;95.89;98360.80;78869;1306;3013326;-65
2024/01/26 01:28:38;;;;;;;15.70;9.40;;;;;;;2.53;95.97;98364.12;78835;1310;3013697;-63
2024/01/26 01:31:06;;;;;;;18.30;10.30;;;;;;;2.38;96.29;98365.80;77455;1310;3050754;-64
2024/01/26 01:33:33;;;;;;;17.70;10.20;;;;;;;2.15;96.75;98363.23;78918;1306;3012867;-63
2024/01/26 01:36:00;;;;;;;16.90;9.90;;;;;;;2.04;97.80;98362.48;78566;1306;3011738;-65
2024/01/26 01:38:27;;;;;;;16.50;7.80;;;;;;;1.97;98.18;98360.50;77641;1312;3025763;-61
2024/01/26 01:40:54;;;;;;;17.40;9.10;;;;;;;2.23;98.09;98369.92;78987;1311;3013115;-63
2024/01/26 01:43:21;;;;;;;17.30;9.10;;;;;;;2.67;96.35;98368.12;78844;1312;3011778;-69
2024/01/26 01:45:48;;;;;;;16.40;9.50;;;;;;;2.73;95.09;98369.94;77480;1311;3029423;-65
2024/01/26 01:48:16;;;;;;;18.60;10.40;;;;;;;2.56;95.18;98373.00;79079;1307;3013742;-63
2024/01/26 01:50:43;;;;;;;19.80;10.60;;;;;;;2.30;95.63;98369.96;78819;1306;3013214;-64
2024/01/26 01:53:11;;;;;;;17.40;10.50;;;;;;;2.18;96.43;98376.04;77870;1306;3049795;-65
2024/01/26 01:55:38;;;;;;;23.20;11.40;;;;;;;2.13;96.52;98374.71;78532;1312;3011841;-62
2024/01/26 01:58:05;;;;;;;17.00;8.70;;;;;;;2.01;97.43;98371.41;78587;1312;3011518;-65
2024/01/26 02:00:32;;;;;;;18.80;9.90;;;;;;;2.49;96.85;98375.70;77380;1306;3026156;-62
2024/01/26 02:02:59;;;;;;;14.80;8.90;;;;;;;2.84;94.35;98378.61;78638;1306;3013744;-66
2024/01/26 02:05:26;;;;;;;16.70;9.90;;;;;;;3.01;93.49;98377.64;78858;1310;3013690;-64
2024/01/26 02:07:54;;;;;;;18.00;9.80;;;;;;;2.80;93.65;98376.88;77685;1311;3026391;-66
2024/01/26 02:10:21;;;;;;;20.10;10.90;;;;;;;2.64;93.93;98378.16;78844;1311;3012972;-64
2024/01/26 02:12:48;;;;;;;19.20;11.30;;;;;;;2.37;94.82;98381.39;78681;1310;3011771;-68
2024/01/26 02:15:16;;;;;;;20.30;12.10;;;;;;;2.10;96.18;98379.81;77505;1306;3051917;-63
2024/01/26 02:17:44;;;;;;;17.60;8.70;;;;;;;1.94;97.22;98377.23;78834;1306;3013329;-65
2024/01/26 02:20:10;;;;;;;16.90;9.50;;;;;;;2.44;97.21;98375.73;78924;1306;3011744;-66
2024/01/26 02:22:38;;;;;;;15.90;9.50;;;;;;;2.77;95.07;98377.01;77622;1310;3050134;-64
2024/01/26 02:25:06;;;;;;;20.80;11.40;;;;;;;2.76;94.27;98382.11;79100;1310;3011846;-66
2024/01/26 02:27:33;;;;;;;17.90;10.60;;;;;;;2.60;94.43;98382.11;78771;1311;3011679;-65
2024/01/26 02:30:02;;;;;;;16.50;9.80;;;;;;;2.41;94.93;98382.97;77513;1311;3050618;-65
2024/01/26 02:32:28;;;;;;;20.60;11.30;;;;;;;2.36;95.31;98388.39;78616;1308;3013429;-65
2024/01/26 02:34:55;;;;;;;21.00;11.80;;;;;;;2.13;96.24;98386.62;78915;1308;3011604;-65
2024/01/26 02:37:23;;;;;;;19.00;9.90;;;;;;;1.97;97.62;98392.81;77429;1312;3049955;-65
2024/01/26 02:39:50;;;;;;;18.70;9.30;;;;;;;2.39;97.23;98388.08;78637;1308;3013433;-63
2024/01/26 02:42:16;;;;;;;19.30;10.10;;;;;;;2.91;94.98;98390.75;78640;1310;3011621;-62
2024/01/26 02:44:44;;;;;;;19.50;10.90;;;;;;;2.81;94.03;98390.67;77563;1308;3028272;-65
2024/01/26 02:47:11;;;;;;;16.40;9.70;;;;;;;2.54;94.48;98390.84;78509;1308;3013041;-62
2024/01/26 02:49:41;;;;;;;16.60;9.80;;;;;;;2.44;95.09;98392.67;78625;1312;3011375;-66
2024/01/26 02:52:09;;;;;;;17.70;10.60;;;;;;;2.15;96.17;98396.54;77586;1311;3049670;-64
2024/01/26 02:54:36;;;;;;;19.00;10.30;;;;;;;2.13;96.60;98397.65;78821;1309;3013158;-62
2024/01/26 02:57:03;;;;;;;12.20;7.30;;;;;;;1.96;97.26;98401.85;78519;1309;3011988;-62
2024/01/26 02:59:31;;;;;;;12.60;7.20;;;;;;;2.36;96.78;98398.90;77438;1306;3052024;-64
2024/01/26 03:01:58;;;;;;;16.30;8.80;;;;;;;2.89;94.70;98399.45;78743;1312;3012988;-67
2024/01/26 03:04:26;;;;;;;16.30;9.60;;;;;;;2.88;93.77;98403.70;78418;1309;3013886;-64
2024/01/26 03:06:55;;;;;;;15.70;9.50;;;;;;;2.61;94.16;98403.87;77188;1311;3049813;-63
2024/01/26 03:09:22;;;;;;;17.20;10.90;;;;;;;2.63;94.54;98404.98;78676;1308;3014585;-64
2024/01/26 03:11:49;;;;;;;17.00;9.30;;;;;;;2.43;94.95;98404.48;78578;1312;3011616;-64
2024/01/26 03:14:18;;;;;;;27.60;9.50;;;;;;;2.34;95.38;98406.42;77344;1311;3052159;-62
2024/01/26 03:16:45;;;;;;;11.60;6.90;;;;;;;2.27;95.72;98406.40;78603;1308;3011792;-65
2024/01/26 03:19:11;;;;;;;17.90;9.30;;;;;;;2.69;95.15;98407.30;78571;1309;3011680;-66
2024/01/26 03:21:43;;;;;;;16.70;9.80;;;;;;;3.05;92.99;98407.39;77297;1311;3050200;-65
2024/01/26 03:24:10;;;;;;;15.90;9.30;;;;;;;3.11;91.94;98405.02;78546;1312;3012266;-61
2024/01/26 03:26:38;;;;;;;16.00;9.10;;;;;;;2.99;92.14;98405.24;78169;1311;3011667;-70
2024/01/26 03:29:06;;;;;;;16.50;9.10;;;;;;;2.88;92.64;98411.29;78736;1310;3012908;-66
2024/01/26 03:31:33;;;;;;;19.80;10.60;;;;;;;2.37;93.89;98416.14;78744;1309;3011535;-66
2024/01/26 03:34:00;;;;;;;16.10;9.60;;;;;;;2.20;95.38;98414.83;77494;1308;3026266;-63
2024/01/26 03:36:27;;;;;;;14.60;8.10;;;;;;;2.21;95.88;98416.13;78721;1311;3019742;-68
2024/01/26 03:38:54;;;;;;;19.50;10.40;;;;;;;2.79;95.10;98423.11;78578;1310;3013973;-66
2024/01/26 03:41:21;;;;;;;14.60;8.10;;;;;;;3.38;92.65;98419.85;77448;1312;3025798;-70
2024/01/26 03:43:51;;;;;;;16.30;9.80;;;;;;;3.21;90.87;98420.48;78817;1312;3011911;-63
2024/01/26 03:46:20;;;;;;;14.10;8.30;;;;;;;3.09;91.47;98420.17;78108;1311;3011667;-65
2024/01/26 03:48:48;;;;;;;18.30;9.80;;;;;;;2.81;91.80;98418.54;78633;1309;3013021;-62
2024/01/26 03:51:14;;;;;;;23.40;11.80;;;;;;;2.80;92.70;98424.13;78631;1311;3011692;-68
2024/01/26 03:53:42;;;;;;;30.10;15.10;;;;;;;2.49;93.01;98424.47;77401;1311;3028792;-66
2024/01/26 03:56:10;;;;;;;18.80;9.50;;;;;;;2.24;94.38;98421.90;78416;1312;3013070;-67
2024/01/26 03:58:37;;;;;;;16.30;8.60;;;;;;;2.70;94.73;98427.13;78503;1311;3012106;-66
2024/01/26 04:01:05;;;;;;;17.30;9.50;;;;;;;3.00;92.36;98428.20;77536;1312;3051658;-66
2024/01/26 04:03:32;;;;;;;15.90;9.70;;;;;;;2.98;92.51;98430.17;78726;1308;3018912;-62
2024/01/26 04:05:59;;;;;;;18.10;10.40;;;;;;;2.91;92.39;98428.96;78821;1310;3013162;-67
2024/01/26 04:08:27;;;;;;;16.30;9.50;;;;;;;2.69;93.03;98423.06;77528;1309;3049004;-67
2024/01/26 04:10:53;;;;;;;18.20;10.00;;;;;;;2.56;93.83;98427.77;78875;1309;3013035;-64
2024/01/26 04:13:20;;;;;;;16.20;9.80;;;;;;;2.47;93.97;98430.41;78724;1309;3013032;-66
2024/01/26 04:15:48;;;;;;;15.70;7.90;;;;;;;2.12;95.13;98432.41;77321;1312;3027658;-67
2024/01/26 04:18:14;;;;;;;13.30;7.50;;;;;;;2.37;95.63;98434.45;78778;1309;3012846;-67
2024/01/26 04:20:41;;;;;;;15.10;8.20;;;;;;;3.00;93.57;98435.98;78467;1311;3013843;-63
2024/01/26 04:23:09;;;;;;;13.90;8.40;;;;;;;3.07;91.96;98440.88;77626;1309;3026573;-64
2024/01/26 04:25:36;;;;;;;13.20;7.70;;;;;;;3.01;91.79;98445.11;78448;1312;3013620;-66
2024/01/26 04:28:03;;;;;;;16.60;8.50;;;;;;;2.53;92.51;98444.48;78843;1310;3011769;-64
2024/01/26 04:30:31;;;;;;;16.10;9.50;;;;;;;2.27;94.02;98441.29;77599;1312;3052121;-69
2024/01/26 04:32:58;;;;;;;16.50;10.10;;;;;;;2.06;95.00;98446.18;78627;1309;3014601;-66
2024/01/26 04:35:24;;;;;;;16.20;8.40;;;;;;;1.80;96.36;98450.85;78729;1306;3013047;-66
2024/01/26 04:37:52;;;;;;;11.10;6.60;;;;;;;2.17;96.68;98445.16;77474;1312;3028329;-65
2024/01/26 04:40:19;;;;;;;15.20;8.20;;;;;;;2.45;94.91;98446.38;78681;1312;3013791;-65
2024/01/26 04:42:45;;;;;;;13.10;8.00;;;;;;;2.38;94.34;98442.56;78679;1310;3013249;-65
2024/01/26 04:45:13;;;;;;;16.40;9.20;;;;;;;2.37;94.60;98444.14;77290;1306;3028772;-66
2024/01/26 04:47:40;;;;;;;13.60;8.40;;;;;;;2.13;95.01;98445.36;78784;1312;3018687;-66
2024/01/26 04:50:07;;;;;;;18.40;10.00;;;;;;;1.97;95.94;98447.75;78519;1311;3011788;-65
2024/01/26 04:52:36;;;;;;;16.60;9.10;;;;;;;1.77;96.52;98451.66;77368;1311;3049911;-63
2024/01/26 04:55:04;;;;;;;13.40;7.00;;;;;;;1.61;97.73;98459.73;78452;1312;3014054;-65
2024/01/26 04:57:31;;;;;;;12.40;6.90;;;;;;;1.93;97.27;98457.22;78670;1311;3011952;-64
2024/01/26 04:59:59;;;;;;;15.20;8.80;;;;;;;2.29;95.47;98457.46;77247;1312;3051342;-62
2024/01/26 05:02:25;;;;;;;15.10;9.10;;;;;;;2.24;94.70;98462.33;78494;1309;3013468;-65
2024/01/26 05:04:52;;;;;;;15.50;7.90;;;;;;;2.31;94.90;98461.02;78630;1310;3011610;-63
2024/01/26 05:07:20;;;;;;;17.50;9.50;;;;;;;2.14;95.17;98464.48;77229;1312;3028803;-64
2024/01/26 05:09:47;;;;;;;16.00;8.90;;;;;;;1.80;96.05;98469.33;78742;1311;3013117;-64
2024/01/26 05:12:13;;;;;;;19.50;10.40;;;;;;;1.74;96.85;98469.60;78645;1312;3013009;-62
2024/01/26 05:14:42;;;;;;;9.70;5.50;;;;;;;1.69;97.55;98472.73;77288;1312;3028182;-65
2024/01/26 05:17:09;;;;;;;14.90;7.00;;;;;;;2.11;96.91;98473.59;78567;1310;3013707;-66
2024/01/26 05:19:36;;;;;;;16.30;8.60;;;;;;;2.59;94.55;98467.23;78636;1309;3012573;-64
2024/01/26 05:22:04;;;;;;;14.90;8.50;;;;;;;2.50;93.31;98469.02;77301;1312;3050606;-65
2024/01/26 05:24:30;;;;;;;16.50;9.20;;;;;;;2.20;93.69;98469.93;78813;1311;3013134;-65
2024/01/26 05:26:57;;;;;;;19.10;10.30;;;;;;;2.22;94.44;98469.31;78549;1312;3011786;-65
2024/01/26 05:29:25;;;;;;;20.70;10.30;;;;;;;2.06;94.65;98471.88;77559;1312;3025364;-65
2024/01/26 05:31:52;;;;;;;16.40;9.00;;;;;;;1.80;95.70;98477.46;78670;1308;3013156;-63
2024/01/26 05:34:18;;;;;;;13.20;6.90;;;;;;;1.73;96.56;98482.57;78451;1312;3012778;-64
2024/01/26 05:36:46;;;;;;;14.00;7.50;;;;;;;2.02;96.60;98480.68;77430;1311;3028582;-64
2024/01/26 05:39:13;;;;;;;16.50;8.90;;;;;;;2.49;94.40;98480.79;78547;1311;3018125;-66
2024/01/26 05:41:39;;;;;;;13.90;8.40;;;;;;;2.58;93.32;98485.09;78586;1312;3011426;-64
2024/01/26 05:44:07;;;;;;;17.00;9.40;;;;;;;2.31;93.37;98491.56;77424;1306;3026615;-64
2024/01/26 05:46:34;;;;;;;14.10;8.90;;;;;;;2.04;94.42;98493.77;78676;1311;3018389;-65
2024/01/26 05:49:00;;;;;;;17.90;10.20;;;;;;;2.16;94.61;98495.52;78669;1311;3013400;-65
2024/01/26 05:51:29;;;;;;;15.20;9.30;;;;;;;1.89;95.18;98501.61;77305;1310;3028880;-62
2024/01/26 05:53:55;;;;;;;12.00;7.20;;;;;;;1.86;95.82;98502.26;78612;1312;3013194;-66
2024/01/26 05:56:22;;;;;;;15.40;8.70;;;;;;;2.19;95.73;98499.19;78573;1319;3012026;-66
2024/01/26 05:58:52;;;;;;;19.90;11.20;;;;;;;2.64;93.61;98495.54;77448;1312;3025794;-65
2024/01/26 06:01:19;;;;;;;17.80;9.20;;;;;;;2.80;92.41;98501.73;78717;1306;3012858;-66
2024/01/26 06:03:48;;;;;;;18.00;9.60;;;;;;;2.67;92.15;98500.59;78801;1306;3011935;-63
2024/01/26 06:06:16;;;;;;;19.30;11.80;;;;;;;2.38;92.73;98505.31;77485;1309;3050443;-63
2024/01/26 06:08:42;;;;;;;15.90;9.60;;;;;;;2.18;93.66;98500.59;78471;1318;3018420;-65
2024/01/26 06:11:09;;;;;;;24.60;13.00;;;;;;;2.05;94.52;98503.73;78512;1306;3013575;-64
2024/01/26 06:13:39;;;;;;;18.60;8.20;;;;;;;1.97;95.21;98509.41;77274;1311;3024937;-64
2024/01/26 06:16:06;;;;;;;17.10;10.50;;;;;;;2.88;93.35;98505.03;78618;1306;3013109;-66
2024/01/26 06:18:33;;;;;;;23.00;12.80;;;;;;;3.15;90.77;98502.97;78562;1311;3011608;-65
2024/01/26 06:21:01;;;;;;;19.30;11.10;;;;;;;3.00;90.17;98506.55;77343;1312;3049859;-68
2024/01/26 06:23:28;;;;;;;16.90;10.40;;;;;;;2.66;91.16;98509.12;78745;1311;3012823;-65
2024/01/26 06:25:55;;;;;;;21.00;12.20;;;;;;;2.52;92.04;98513.36;78722;1311;3012082;-66
2024/01/26 06:28:22;;;;;;;26.70;13.20;;;;;;;2.35;92.72;98519.42;77413;1312;3029059;-65
2024/01/26 06:30:49;;;;;;;21.30;11.80;;;;;;;2.19;93.66;98522.16;78884;1310;3018551;-67
2024/01/26 06:33:16;;;;;;;23.80;11.20;;;;;;;2.05;94.27;98526.19;78834;1306;3013204;-65
2024/01/26 06:35:44;;;;;;;16.20;8.20;;;;;;;1.94;95.09;98528.86;77586;1307;3028802;-67
2024/01/26 06:38:11;;;;;;;17.70;9.30;;;;;;;2.44;94.83;98524.23;78744;1312;3013099;-66
2024/01/26 06:40:38;;;;;;;15.20;8.10;;;;;;;2.98;92.40;98523.96;78705;1309;3011699;-66
2024/01/26 06:43:08;;;;;;;17.50;10.60;;;;;;;3.06;91.16;98530.19;77642;1309;3025809;-69
2024/01/26 06:45:34;;;;;;;17.90;8.80;;;;;;;2.84;91.04;98530.98;78890;1312;3013447;-65
2024/01/26 06:48:01;;;;;;;20.60;11.10;;;;;;;2.91;91.49;98530.51;78592;1306;3011531;-67
2024/01/26 06:50:29;;;;;;;22.80;12.20;;;;;;;2.80;90.93;98539.63;77511;1310;3049608;-65
2024/01/26 06:52:56;;;;;;;20.30;10.70;;;;;;;2.57;91.86;98537.52;78847;1310;3011613;-64
2024/01/26 06:55:23;;;;;;;18.40;9.80;;;;;;;2.42;92.61;98540.92;78822;1306;3012144;-64
2024/01/26 06:57:52;;;;;;;14.40;7.40;;;;;;;2.42;92.67;98542.80;77620;1311;3025477;-64
2024/01/26 07:00:19;;;;;;;17.70;9.30;;;;;;;2.85;92.39;98543.05;78819;1306;3014447;-63
2024/01/26 07:02:45;;;;;;;18.80;11.10;;;;;;;3.29;90.35;98545.05;78679;1307;3012047;-63
2024/01/26 07:05:14;;;;;;;19.90;10.60;;;;;;;3.45;89.27;98545.73;77487;1310;3050914;-67
2024/01/26 07:07:40;;;;;;;18.50;10.70;;;;;;;3.06;89.27;98553.00;79230;1312;3018719;-66
2024/01/26 07:10:07;;;;;;;20.50;11.50;;;;;;;2.96;90.54;98547.59;79002;1306;3011405;-68
2024/01/26 07:12:35;;;;;;;22.70;11.50;;;;;;;2.93;90.69;98546.83;77538;1312;3026684;-65
2024/01/26 07:15:02;;;;;;;20.60;10.50;;;;;;;2.71;91.22;98550.90;78904;1307;3013219;-63
2024/01/26 07:17:29;;;;;;;24.60;12.30;;;;;;;2.50;92.04;98553.52;78652;1312;3013276;-66
2024/01/26 07:19:57;;;;;;;14.00;7.00;;;;;;;2.42;92.89;98551.60;77598;1311;3026592;-64
2024/01/26 07:22:24;;;;;;;23.70;11.50;;;;;;;3.03;92.14;98554.71;78790;1312;3020420;-65
2024/01/26 07:24:50;;;;;;;19.10;10.00;;;;;;;3.58;89.46;98549.80;78771;1312;3013343;-63
2024/01/26 07:27:18;;;;;;;16.00;9.40;;;;;;;3.78;87.98;98551.48;77329;1306;3024804;-66
2024/01/26 07:29:47;;;;;;;16.40;9.10;;;;;;;3.61;87.31;98547.06;78751;1311;3012741;-64
2024/01/26 07:32:14;;;;;;;17.50;9.50;;;;;;;3.54;87.48;98554.14;78649;1311;3011762;-65
2024/01/26 07:34:42;;;;;;;17.30;10.20;;;;;;;3.30;88.05;98555.05;77551;1312;3050509;-66
2024/01/26 07:37:09;;;;;;;23.30;11.70;;;;;;;3.08;88.85;98561.05;78889;1310;3013082;-64
2024/01/26 07:39:35;;;;;;;33.00;14.10;;;;;;;2.96;89.80;98562.46;78814;1311;3013738;-64
2024/01/26 07:42:03;;;;;;;25.10;13.60;;;;;;;2.89;90.55;98566.04;77597;1312;3028200;-66
2024/01/26 07:44:30;;;;;;;20.30;9.10;;;;;;;2.79;90.91;98568.91;79609;1310;3012986;-64
2024/01/26 07:46:58;;;;;;;21.00;10.90;;;;;;;3.24;90.36;98569.86;78970;1306;3013470;-65
2024/01/26 07:49:26;;;;;;;13.00;7.50;;;;;;;3.83;87.83;98572.20;79601;1306;3049867;-65
2024/01/26 07:51:53;;;;;;;16.40;9.20;;;;;;;3.79;86.30;98572.05;79448;1312;3030007;-66
2024/01/26 07:54:19;;;;;;;19.60;10.30;;;;;;;3.64;86.70;98569.28;78351;1314;3011535;-65
2024/01/26 07:56:47;;;;;;;19.50;11.20;;;;;;;3.56;87.16;98570.50;77219;1312;3026654;-64
2024/01/26 07:59:14;;;;;;;17.40;10.10;;;;;;;3.33;87.89;98571.52;78499;1314;3013356;-62
2024/01/26 08:01:41;;;;;;;21.60;10.80;;;;;;;3.19;88.82;98573.40;78530;1312;3011808;-68
2024/01/26 08:04:09;;;;;;;19.80;10.60;;;;;;;3.04;89.03;98578.19;77331;1312;3028598;-65
2024/01/26 08:06:36;;;;;;;14.10;8.10;;;;;;;2.71;90.14;98580.67;78451;1314;3013726;-62
2024/01/26 08:09:03;;;;;;;13.60;7.50;;;;;;;2.72;91.08;98584.42;78531;1315;3011922;-63
2024/01/26 08:11:32;;;;;;;19.50;9.40;;;;;;;3.29;89.92;98585.02;77338;1315;3051176;-67
2024/01/26 08:14:00;;;;;;;20.40;10.60;;;;;;;4.03;87.73;98589.47;78727;1323;3013102;-65
2024/01/26 08:16:27;;;;;;;19.20;10.90;;;;;;;4.24;85.97;98590.71;78498;1313;3011878;-67
2024/01/26 08:18:55;;;;;;;16.50;9.30;;;;;;;4.00;85.59;98595.30;77342;1314;3050358;-65
2024/01/26 08:21:22;;;;;;;19.60;10.10;;;;;;;3.80;86.14;98593.98;78713;1323;3013017;-66
2024/01/26 08:23:48;;;;;;;21.50;9.90;;;;;;;3.41;87.24;98596.45;79195;1317;3013039;-66
2024/01/26 08:26:18;;;;;;;21.30;11.00;;;;;;;3.21;88.64;98599.24;77318;1314;3025750;-66
2024/01/26 08:28:45;;;;;;;24.50;11.80;;;;;;;3.16;88.90;98602.77;78710;1315;3013158;-65
2024/01/26 08:31:11;;;;;;;25.00;12.00;;;;;;;3.10;89.23;98601.48;78324;1313;3011655;-66
2024/01/26 08:33:39;;;;;;;27.00;12.50;;;;;;;2.89;90.00;98601.18;77502;1314;3049907;-64
2024/01/26 08:36:06;;;;;;;18.50;9.40;;;;;;;2.75;91.50;98597.63;78405;1317;3013695;-64
2024/01/26 08:38:33;;;;;;;19.20;10.00;;;;;;;3.38;90.71;98596.24;78525;1314;3011940;-65
2024/01/26 08:41:02;;;;;;;16.90;9.70;;;;;;;3.93;87.74;98599.28;77387;1314;3026853;-65
2024/01/26 08:43:28;;;;;;;18.80;11.10;;;;;;;3.88;86.47;98602.44;78514;1312;3013216;-65
2024/01/26 08:45:55;;;;;;;18.30;9.90;;;;;;;3.84;86.33;98603.31;78627;1312;3012099;-70
2024/01/26 08:48:23;;;;;;;20.10;10.20;;;;;;;3.46;87.30;98600.92;77355;1314;3050335;-65
2024/01/26 08:50:50;;;;;;;18.40;9.30;;;;;;;3.34;88.30;98600.94;78419;1314;3013716;-64
2024/01/26 08:53:17;;;;;;;16.70;9.20;;;;;;;3.25;88.94;98601.83;78647;1315;3013406;-65
2024/01/26 08:55:45;;;;;;;22.90;10.80;;;;;;;3.18;89.41;98604.75;77391;1314;3052857;-66
2024/01/26 08:58:11;;;;;;;24.90;10.20;;;;;;;3.08;89.94;98605.01;78644;1315;3013514;-64
2024/01/26 09:00:38;;;;;;;22.20;9.60;;;;;;;3.13;89.91;98608.09;78480;1313;3011494;-65
2024/01/26 09:03:07;;;;;;;21.90;11.10;;;;;;;3.42;89.37;98605.61;77215;1315;3028725;-65
2024/01/26 09:05:34;;;;;;;22.30;10.50;;;;;;;3.84;87.78;98605.94;78815;1314;3015092;-67
2024/01/26 09:08:00;;;;;;;21.20;11.00;;;;;;;3.95;86.80;98604.55;78485;1314;3012916;-65
2024/01/26 09:10:28;;;;;;;24.80;13.30;;;;;;;3.91;86.51;98601.94;77494;1315;3051529;-67
2024/01/26 09:12:55;;;;;;;23.30;11.90;;;;;;;3.70;86.71;98602.44;78628;1314;3013081;-65
2024/01/26 09:15:21;;;;;;;25.30;11.90;;;;;;;3.82;87.32;98602.77;78466;1314;3011744;-67
2024/01/26 09:17:49;;;;;;;27.70;14.20;;;;;;;3.63;87.03;98605.30;77287;1315;3026078;-65
2024/01/26 09:20:16;;;;;;;22.60;11.20;;;;;;;3.47;87.81;98604.01;78609;1314;3013139;-63
2024/01/26 09:22:43;;;;;;;24.60;12.70;;;;;;;3.31;88.28;98605.05;78479;1313;3011961;-66
2024/01/26 09:25:11;;;;;;;35.20;15.80;;;;;;;3.35;88.80;98603.83;77148;1315;3026407;-65
2024/01/26 09:27:37;;;;;;;19.80;9.20;;;;;;;3.32;89.01;98601.89;78637;1314;3013797;-67
2024/01/26 09:30:06;;;;;;;20.30;9.50;;;;;;;3.84;87.47;98602.64;78480;1311;3012776;-69
2024/01/26 09:32:34;;;;;;;16.50;8.90;;;;;;;4.50;84.36;98602.61;77430;1314;3050016;-65
2024/01/26 09:35:04;;;;;;;18.70;9.30;;;;;;;4.51;82.96;98606.55;78943;1319;3013425;-65
2024/01/26 09:37:33;;;;;;;16.60;9.40;;;;;;;4.43;83.15;98609.20;78615;1308;3011841;-64
2024/01/26 09:39:59;;;;;;;17.70;10.50;;;;;;;4.24;83.61;98609.95;79064;1308;3020696;-68
2024/01/26 09:42:26;;;;;;;19.10;9.50;;;;;;;4.19;84.05;98612.42;79023;1308;3011644;-65
2024/01/26 09:44:55;;;;;;;15.80;9.50;;;;;;;3.90;84.66;98612.58;77603;1311;3026444;-66
2024/01/26 09:47:22;;;;;;;13.70;8.60;;;;;;;3.71;85.66;98611.22;78930;1309;3012850;-66
2024/01/26 09:49:54;;;;;;;16.00;8.30;;;;;;;3.59;86.23;98611.41;78694;1311;3011546;-68
2024/01/26 09:54:15;;;;;;;18.70;10.70;;;;;;;3.54;87.22;98610.77;80114;1303;3013215;-67
2024/01/26 09:56:42;;;;;;;18.60;10.00;;;;;;;3.53;87.36;98616.01;79026;1307;3013081;-68
2024/01/26 09:59:10;;;;;;;13.60;7.30;;;;;;;3.43;87.95;98614.90;79299;1302;3011843;-65
2024/01/26 10:01:40;;;;;;;18.40;9.40;;;;;;;4.07;86.75;98614.70;78021;1307;3051441;-67
2024/01/26 10:04:10;;;;;;;11.60;7.50;;;;;;;4.93;84.63;98610.35;78945;1302;3011732;-67
2024/01/26 10:06:38;;;;;;;15.40;8.80;;;;;;;4.95;82.16;98609.05;77456;1307;3050369;-66
2024/01/26 10:09:07;;;;;;;17.40;9.20;;;;;;;4.79;82.22;98611.73;79414;1304;3013072;-68
2024/01/26 10:11:33;;;;;;;20.10;10.40;;;;;;;4.70;82.65;98607.84;79465;1301;3013138;-64
2024/01/26 10:14:02;;;;;;;18.70;10.90;;;;;;;4.53;83.08;98609.55;78022;1304;3049190;-68
2024/01/26 10:16:29;;;;;;;25.00;12.90;;;;;;;4.49;83.26;98610.63;79335;1301;3013194;-65
2024/01/26 10:18:56;;;;;;;30.80;16.30;;;;;;;4.23;83.76;98611.02;79492;1301;3011940;-66
2024/01/26 10:21:24;;;;;;;20.50;12.10;;;;;;;4.17;84.11;98611.98;78411;1301;3049887;-64
2024/01/26 10:23:51;;;;;;;22.40;12.30;;;;;;;4.06;84.41;98614.45;79453;1301;3012947;-68
2024/01/26 10:26:18;;;;;;;19.40;11.00;;;;;;;3.94;85.27;98612.92;79334;1301;3011695;-63
2024/01/26 10:28:48;;;;;;;18.50;9.10;;;;;;;3.73;86.04;98617.02;77970;1300;3048674;-66
2024/01/26 10:31:15;;;;;;;18.10;9.60;;;;;;;4.03;85.56;98616.64;79531;1302;3012984;-66
2024/01/26 10:33:42;;;;;;;18.70;10.20;;;;;;;4.61;83.49;98614.88;79433;1302;3012691;-68
2024/01/26 10:36:10;;;;;;;24.70;12.80;;;;;;;4.68;82.35;98617.14;78263;1299;3050747;-67
2024/01/26 10:38:36;;;;;;;21.40;11.80;;;;;;;4.57;82.57;98617.33;79286;1299;3018455;-64
2024/01/26 10:41:04;;;;;;;26.70;13.70;;;;;;;4.43;83.24;98616.66;79310;1304;3013889;-63
2024/01/26 10:43:32;;;;;;;30.60;15.60;;;;;;;4.22;84.03;98616.45;78332;1301;3050865;-67
2024/01/26 10:46:00;;;;;;;23.80;13.30;;;;;;;4.11;84.63;98615.93;79516;1301;3013054;-64
2024/01/26 10:48:27;;;;;;;31.50;16.20;;;;;;;3.97;85.00;98613.31;79099;1302;3011419;-65
2024/01/26 10:50:55;;;;;;;26.80;14.70;;;;;;;3.80;85.90;98610.81;78160;1300;3051600;-66
2024/01/26 10:53:22;;;;;;;38.60;19.40;;;;;;;3.77;86.55;98612.16;79636;1298;3013419;-67
2024/01/26 10:55:49;;;;;;;37.20;18.50;;;;;;;3.79;86.34;98610.66;79531;1301;3013701;-64
2024/01/26 10:58:17;;;;;;;24.10;11.60;;;;;;;3.72;86.93;98608.59;78266;1311;3049071;-64
2024/01/26 11:00:44;;;;;;;22.10;12.20;;;;;;;4.31;86.33;98611.65;79440;1301;3012743;-63
2024/01/26 11:03:11;;;;;;;21.70;11.60;;;;;;;5.14;83.82;98606.82;79355;1300;3011628;-66
2024/01/26 11:05:39;;;;;;;21.50;11.70;;;;;;;5.42;82.17;98605.02;78392;1298;3026354;-65
2024/01/26 11:08:14;;;;;;;22.20;12.10;;;;;;;5.28;80.48;98606.43;79543;1299;3013263;-63
2024/01/26 11:10:41;;;;;;;29.80;15.10;;;;;;;5.11;80.70;98608.38;78123;1298;3052660;-68
2024/01/26 11:13:09;;;;;;;31.00;16.20;;;;;;;4.92;81.01;98610.92;79553;1301;3012684;-64